Rockford, Washington
Current Conditions -  °F | °C
As of 5:53 PM on Monday 24 Nov 2014 (Local Time) from KSFF Reporting Station
Overcast Overcast  
Wind Chill: 38°   Ceiling: 3600
Heat Index: 41°   Visibility: 10mi
Dew Point: 31°   Wind: 5mph
Humidity: 67%   Direction: 90°E
Pressure: 30.17"   Gusts: NA
Location:  47.45°N, 117.13°W
Report Text: KSFF 250153Z 09004KT 10SM OVC036 05/M01 A3017 RMK AO2 SLP232 T00501006
Loading
Personal Weather Stations






























Interactive Weather Map New forecast layout! Learn more

10-Day Weather Forecast

Advertisements
Track Severe Weather on mobile